createdAt,value
2022-07-27T00:00:00.400Z,14.47
2022-07-27T00:01:00.546Z,14.47
2022-07-27T00:02:00.456Z,14.47
2022-07-27T00:03:00.463Z,14.56
2022-07-27T00:04:00.490Z,14.56
2022-07-27T00:05:00.460Z,14.47
2022-07-27T00:06:00.463Z,14.47
2022-07-27T00:07:00.400Z,14.47
2022-07-27T00:08:00.408Z,14.38
2022-07-27T00:09:00.494Z,14.47
2022-07-27T00:10:00.511Z,14.47
2022-07-27T00:11:00.408Z,14.38
2022-07-27T00:12:00.529Z,14.38
2022-07-27T00:13:00.453Z,14.38
2022-07-27T00:14:00.407Z,14.38
2022-07-27T00:15:00.401Z,14.38
2022-07-27T00:16:00.494Z,14.38
2022-07-27T00:17:00.421Z,14.38
2022-07-27T00:18:00.408Z,14.38
2022-07-27T00:19:00.557Z,14.3
2022-07-27T00:20:00.442Z,14.3
2022-07-27T00:21:00.409Z,14.38
2022-07-27T00:22:00.404Z,14.3
2022-07-27T00:23:00.415Z,14.3
2022-07-27T00:24:00.530Z,14.3
2022-07-27T00:25:00.405Z,14.3
2022-07-27T00:26:00.569Z,14.38
2022-07-27T00:27:00.538Z,14.3
2022-07-27T00:28:00.428Z,14.3
2022-07-27T00:29:00.401Z,14.3
2022-07-27T00:30:00.430Z,14.3
2022-07-27T00:31:00.532Z,14.3
2022-07-27T00:32:00.412Z,14.38
2022-07-27T00:33:00.558Z,14.38
2022-07-27T00:34:00.458Z,14.3
2022-07-27T00:35:00.409Z,14.21
2022-07-27T00:36:00.413Z,14.21
2022-07-27T00:37:00.489Z,14.21
2022-07-27T00:38:00.420Z,14.21
2022-07-27T00:39:00.498Z,14.3
2022-07-27T00:40:00.512Z,14.3
2022-07-27T00:41:00.512Z,14.3
2022-07-27T00:42:00.426Z,14.21
2022-07-27T00:43:00.519Z,14.21
2022-07-27T00:44:00.525Z,14.13
2022-07-27T00:45:00.420Z,14.13
2022-07-27T00:46:00.440Z,14.13
2022-07-27T00:47:00.607Z,14.13
2022-07-27T00:48:00.468Z,14.13
2022-07-27T00:49:00.490Z,14.13
2022-07-27T00:50:00.464Z,14.13
2022-07-27T00:51:00.502Z,14.04
2022-07-27T00:52:00.400Z,14.04
2022-07-27T00:53:00.424Z,14.04
2022-07-27T00:54:00.498Z,14.04
2022-07-27T00:55:00.464Z,14.04
2022-07-27T00:56:00.497Z,13.96
2022-07-27T00:57:00.403Z,14.04
2022-07-27T00:58:00.437Z,13.96
2022-07-27T00:59:00.421Z,14.04
2022-07-27T01:00:00.524Z,14.04
2022-07-27T01:01:00.535Z,13.96
2022-07-27T01:02:00.623Z,14.04
2022-07-27T01:03:02.558Z,14.13
2022-07-27T01:04:00.460Z,14.13
2022-07-27T01:05:00.450Z,14.04
2022-07-27T01:06:02.018Z,14.04
2022-07-27T01:07:00.424Z,14.04
2022-07-27T01:08:00.467Z,14.04
2022-07-27T01:09:00.471Z,14.04
2022-07-27T01:10:00.512Z,14.04
2022-07-27T01:11:00.417Z,13.96
2022-07-27T01:12:00.503Z,13.96
2022-07-27T01:13:00.433Z,13.96
2022-07-27T01:14:00.427Z,13.96
2022-07-27T01:15:00.489Z,13.96
2022-07-27T01:16:00.616Z,13.96
2022-07-27T01:17:00.454Z,13.96
2022-07-27T01:18:00.421Z,13.96
2022-07-27T01:19:00.454Z,13.96
2022-07-27T01:20:00.444Z,13.96
2022-07-27T01:21:00.478Z,13.96
2022-07-27T01:22:00.475Z,13.87
2022-07-27T01:23:00.567Z,13.87
2022-07-27T01:24:00.486Z,13.96
2022-07-27T01:25:00.430Z,13.87
2022-07-27T01:26:00.495Z,13.87
2022-07-27T01:27:00.486Z,13.87
2022-07-27T01:28:00.409Z,13.87
2022-07-27T01:29:00.489Z,13.96
2022-07-27T01:30:00.518Z,13.87
2022-07-27T01:31:00.602Z,13.96
2022-07-27T01:32:00.577Z,13.96
2022-07-27T01:33:00.556Z,13.87
2022-07-27T01:34:00.661Z,13.87
2022-07-27T01:35:00.699Z,13.87
2022-07-27T01:36:00.573Z,13.87
2022-07-27T01:37:00.721Z,13.87
2022-07-27T01:38:00.461Z,13.79
2022-07-27T01:39:00.415Z,13.79
2022-07-27T01:40:00.441Z,13.79
2022-07-27T01:41:00.424Z,13.79
2022-07-27T01:42:00.434Z,13.71
2022-07-27T01:43:00.468Z,13.71
2022-07-27T01:44:00.495Z,13.71
2022-07-27T01:45:00.431Z,13.71
2022-07-27T01:46:00.480Z,13.71
2022-07-27T01:47:00.530Z,13.71
2022-07-27T01:48:00.434Z,13.71
2022-07-27T01:49:00.508Z,13.63
2022-07-27T01:50:00.544Z,13.63
2022-07-27T01:51:00.469Z,13.63
2022-07-27T01:52:00.417Z,13.54
2022-07-27T01:53:00.459Z,13.63
2022-07-27T01:54:00.438Z,13.63
2022-07-27T01:55:00.419Z,13.63
2022-07-27T01:56:00.417Z,13.54
2022-07-27T01:57:00.478Z,13.63
2022-07-27T01:58:00.488Z,13.63
2022-07-27T01:59:00.492Z,13.54
2022-07-27T02:00:00.426Z,13.54
2022-07-27T02:01:00.519Z,13.46
2022-07-27T02:02:00.539Z,13.46
2022-07-27T02:03:00.532Z,13.38
2022-07-27T02:04:00.484Z,13.38
2022-07-27T02:05:00.578Z,13.3
2022-07-27T02:06:00.407Z,13.22
2022-07-27T02:07:00.455Z,13.22
2022-07-27T02:08:00.453Z,13.22
2022-07-27T02:09:00.417Z,13.22
2022-07-27T02:10:00.426Z,13.22
2022-07-27T02:11:00.669Z,13.14
2022-07-27T02:12:00.635Z,13.06
2022-07-27T02:13:00.722Z,13.06
2022-07-27T02:14:00.449Z,12.98
2022-07-27T02:15:05.857Z,12.98
2022-07-27T02:16:00.567Z,12.9
2022-07-27T02:17:00.431Z,12.9
2022-07-27T02:18:00.489Z,12.82
2022-07-27T02:19:00.525Z,12.74
2022-07-27T02:20:00.426Z,12.74
2022-07-27T02:21:00.424Z,12.74
2022-07-27T02:22:00.428Z,12.74
2022-07-27T02:23:00.425Z,12.74
2022-07-27T02:24:00.449Z,12.74
2022-07-27T02:25:00.556Z,12.67
2022-07-27T02:26:00.470Z,12.67
2022-07-27T02:27:00.463Z,12.67
2022-07-27T02:28:00.475Z,12.67
2022-07-27T02:29:00.488Z,12.67
2022-07-27T02:30:00.486Z,12.67
2022-07-27T02:31:00.502Z,12.67
2022-07-27T02:32:00.504Z,12.59
2022-07-27T02:33:00.565Z,12.59
2022-07-27T02:34:00.456Z,12.59
2022-07-27T02:35:00.424Z,12.59
2022-07-27T02:36:00.428Z,12.59
2022-07-27T02:37:00.421Z,12.51
2022-07-27T02:38:00.445Z,12.51
2022-07-27T02:39:00.553Z,12.51
2022-07-27T02:40:00.471Z,12.51
2022-07-27T02:41:00.438Z,12.51
2022-07-27T02:42:00.433Z,12.44
2022-07-27T02:43:00.468Z,12.51
2022-07-27T02:44:00.473Z,12.51
2022-07-27T02:45:00.488Z,12.44
2022-07-27T02:46:00.552Z,12.51
2022-07-27T02:47:00.479Z,12.44
2022-07-27T02:48:00.423Z,12.51
2022-07-27T02:49:00.539Z,12.51
2022-07-27T02:50:00.523Z,12.44
2022-07-27T02:51:00.524Z,12.51
2022-07-27T02:52:00.533Z,12.51
2022-07-27T02:53:00.536Z,12.51
2022-07-27T02:54:00.472Z,12.51
2022-07-27T02:55:00.418Z,12.51
2022-07-27T02:56:00.417Z,12.51
2022-07-27T02:57:00.460Z,12.51
2022-07-27T02:58:00.476Z,12.51
2022-07-27T02:59:00.449Z,12.44
2022-07-27T03:00:00.496Z,12.44
2022-07-27T03:01:00.470Z,12.44
2022-07-27T03:02:00.543Z,12.36
2022-07-27T03:03:00.443Z,12.36
2022-07-27T03:04:00.559Z,12.36
2022-07-27T03:05:00.503Z,12.44
2022-07-27T03:06:00.420Z,12.36
2022-07-27T03:07:00.482Z,12.36
2022-07-27T03:08:00.472Z,12.44
2022-07-27T03:09:00.417Z,12.36
2022-07-27T03:10:00.441Z,12.36
2022-07-27T03:11:00.552Z,12.36
2022-07-27T03:12:00.450Z,12.36
2022-07-27T03:13:00.427Z,12.36
2022-07-27T03:14:00.482Z,12.36
2022-07-27T03:15:00.578Z,12.28
2022-07-27T03:16:00.533Z,12.28
2022-07-27T03:17:00.493Z,12.36
2022-07-27T03:18:00.442Z,12.36
2022-07-27T03:19:00.428Z,12.36
2022-07-27T03:20:00.460Z,12.36
2022-07-27T03:21:00.519Z,12.36
2022-07-27T03:22:00.517Z,12.36
2022-07-27T03:23:00.425Z,12.36
2022-07-27T03:24:00.426Z,12.36
2022-07-27T03:25:00.418Z,12.28
2022-07-27T03:26:00.442Z,12.28
2022-07-27T03:27:00.445Z,12.28
2022-07-27T03:28:03.990Z,12.28
2022-07-27T03:29:00.464Z,12.36
2022-07-27T03:30:00.431Z,12.28
2022-07-27T03:31:00.585Z,12.28
2022-07-27T03:32:00.455Z,12.28
2022-07-27T03:33:00.498Z,12.28
2022-07-27T03:34:02.072Z,12.28
2022-07-27T03:35:00.495Z,12.28
2022-07-27T03:36:00.482Z,12.28
2022-07-27T03:37:00.431Z,12.28
2022-07-27T03:38:00.432Z,12.21
2022-07-27T03:39:04.330Z,12.21
2022-07-27T03:40:00.428Z,12.28
2022-07-27T03:41:00.435Z,12.28
2022-07-27T03:42:00.485Z,12.21
2022-07-27T03:43:00.476Z,12.21
2022-07-27T03:44:00.454Z,12.21
2022-07-27T03:45:00.460Z,12.21
2022-07-27T03:46:00.543Z,12.13
2022-07-27T03:47:00.468Z,12.13
2022-07-27T03:48:00.429Z,12.13
2022-07-27T03:49:00.563Z,12.13
2022-07-27T03:50:00.482Z,12.13
2022-07-27T03:51:00.442Z,12.06
2022-07-27T03:52:00.442Z,12.13
2022-07-27T03:53:00.435Z,12.13
2022-07-27T03:54:00.519Z,12.06
2022-07-27T03:55:00.451Z,12.13
2022-07-27T03:56:00.528Z,12.06
2022-07-27T03:57:00.541Z,12.06
2022-07-27T03:58:00.437Z,12.06
2022-07-27T03:59:00.459Z,12.06
2022-07-27T04:00:00.455Z,11.99
2022-07-27T04:01:00.544Z,12.06
2022-07-27T04:02:00.527Z,11.99
2022-07-27T04:03:00.674Z,12.06
2022-07-27T04:04:00.484Z,12.06
2022-07-27T04:05:00.423Z,12.13
2022-07-27T04:06:00.487Z,12.13
2022-07-27T04:07:00.505Z,12.13
2022-07-27T04:08:00.501Z,12.21
2022-07-27T04:09:07.953Z,12.13
2022-07-27T04:10:00.757Z,12.13
2022-07-27T04:11:00.468Z,12.13
2022-07-27T04:12:00.479Z,12.06
2022-07-27T04:13:00.558Z,12.06
2022-07-27T04:14:00.546Z,12.06
2022-07-27T04:15:00.451Z,12.06
2022-07-27T04:16:00.429Z,11.99
2022-07-27T04:17:00.548Z,11.99
2022-07-27T04:18:00.512Z,11.99
2022-07-27T04:19:00.498Z,11.91
2022-07-27T04:20:00.501Z,11.91
2022-07-27T04:21:00.482Z,11.99
2022-07-27T04:22:00.423Z,11.91
2022-07-27T04:23:00.429Z,11.91
2022-07-27T04:24:00.511Z,11.91
2022-07-27T04:25:00.521Z,11.84
2022-07-27T04:26:00.580Z,11.91
2022-07-27T04:27:00.530Z,11.99
2022-07-27T04:28:00.429Z,11.99
2022-07-27T04:29:00.427Z,11.99
2022-07-27T04:30:00.516Z,11.91
2022-07-27T04:31:00.720Z,11.99
2022-07-27T04:32:00.567Z,11.99
2022-07-27T04:33:00.460Z,11.99
2022-07-27T04:34:00.464Z,12.06
2022-07-27T04:35:00.478Z,11.99
2022-07-27T04:36:00.442Z,12.06
2022-07-27T04:37:00.423Z,12.06
2022-07-27T04:38:00.482Z,12.13
2022-07-27T04:39:00.508Z,12.13
2022-07-27T04:40:00.416Z,12.21
2022-07-27T04:41:00.492Z,12.21
2022-07-27T04:42:00.433Z,12.21
2022-07-27T04:43:00.518Z,12.21
2022-07-27T04:44:00.535Z,12.21
2022-07-27T04:45:00.539Z,12.13
2022-07-27T04:46:00.623Z,12.21
2022-07-27T04:47:00.438Z,12.21
2022-07-27T04:48:00.418Z,12.13
2022-07-27T04:49:00.524Z,12.13
2022-07-27T04:50:00.427Z,12.06
2022-07-27T04:51:00.468Z,12.06
2022-07-27T04:52:00.493Z,12.13
2022-07-27T04:53:00.480Z,12.06
2022-07-27T04:54:00.424Z,12.06
2022-07-27T04:55:00.434Z,12.06
2022-07-27T04:56:00.515Z,12.21
2022-07-27T04:57:00.520Z,12.28
2022-07-27T04:58:00.562Z,12.28
2022-07-27T04:59:00.478Z,12.28
2022-07-27T05:00:00.538Z,12.28
2022-07-27T05:01:00.553Z,12.21
2022-07-27T05:02:00.437Z,12.28
2022-07-27T05:03:00.569Z,12.21
2022-07-27T05:04:00.513Z,12.21
2022-07-27T05:05:00.438Z,12.21
2022-07-27T05:06:00.575Z,12.06
2022-07-27T05:07:00.491Z,12.13
2022-07-27T05:08:00.482Z,12.13
2022-07-27T05:09:00.486Z,12.13
2022-07-27T05:10:00.435Z,12.13
2022-07-27T05:11:00.498Z,12.13
2022-07-27T05:12:00.516Z,12.13
2022-07-27T05:13:00.510Z,12.21
2022-07-27T05:14:00.514Z,12.21
2022-07-27T05:15:00.434Z,12.21
2022-07-27T05:16:00.454Z,12.13
2022-07-27T05:17:00.563Z,12.13
2022-07-27T05:18:00.447Z,12.21
2022-07-27T05:19:00.450Z,12.21
2022-07-27T05:20:00.554Z,12.28
2022-07-27T05:21:00.673Z,12.21
2022-07-27T05:22:00.682Z,12.21
2022-07-27T05:23:00.700Z,12.21
2022-07-27T05:24:00.668Z,12.21
2022-07-27T05:25:00.729Z,12.28
2022-07-27T05:26:00.433Z,12.36
2022-07-27T05:27:00.830Z,12.36
2022-07-27T05:28:00.811Z,12.44
2022-07-27T05:29:00.520Z,12.36
2022-07-27T05:30:00.450Z,12.44
2022-07-27T05:31:00.530Z,12.51
2022-07-27T05:32:00.514Z,12.59
2022-07-27T05:33:00.546Z,12.59
2022-07-27T05:34:00.543Z,12.67
2022-07-27T05:35:00.550Z,12.59
2022-07-27T05:36:00.454Z,12.67
2022-07-27T05:37:00.456Z,12.74
2022-07-27T05:38:00.496Z,12.82
2022-07-27T05:39:00.467Z,12.9
2022-07-27T05:40:00.490Z,12.9
2022-07-27T05:41:00.481Z,12.9
2022-07-27T05:42:00.533Z,12.98
2022-07-27T05:43:00.507Z,12.9
2022-07-27T05:44:00.433Z,12.98
2022-07-27T05:45:00.467Z,12.98
2022-07-27T05:46:00.623Z,12.98
2022-07-27T05:47:00.445Z,12.98
2022-07-27T05:48:00.528Z,13.06
2022-07-27T05:49:00.585Z,13.06
2022-07-27T05:50:00.439Z,13.06
2022-07-27T05:51:00.436Z,12.98
2022-07-27T05:52:00.436Z,13.06
2022-07-27T05:53:00.442Z,12.98
2022-07-27T05:54:00.437Z,13.06
2022-07-27T05:55:00.522Z,13.14
2022-07-27T05:56:00.558Z,13.14
2022-07-27T05:57:00.728Z,13.22
2022-07-27T05:58:00.682Z,13.22
2022-07-27T05:59:03.760Z,13.22
2022-07-27T06:00:00.457Z,13.3
2022-07-27T06:01:00.471Z,13.3
2022-07-27T06:02:00.506Z,13.22
2022-07-27T06:03:00.513Z,13.3
2022-07-27T06:04:00.507Z,13.38
2022-07-27T06:05:00.451Z,13.38
2022-07-27T06:06:00.474Z,13.38
2022-07-27T06:07:00.492Z,13.46
2022-07-27T06:08:00.817Z,13.46
2022-07-27T06:09:00.498Z,13.46
2022-07-27T06:10:00.616Z,13.46
2022-07-27T06:11:00.453Z,13.54
2022-07-27T06:12:00.449Z,13.54
2022-07-27T06:13:00.445Z,13.54
2022-07-27T06:14:00.438Z,13.54
2022-07-27T06:15:00.459Z,13.54
2022-07-27T06:16:00.533Z,13.71
2022-07-27T06:17:00.602Z,13.79
2022-07-27T06:18:00.430Z,13.63
2022-07-27T06:19:00.450Z,13.63
2022-07-27T06:20:00.442Z,13.63
2022-07-27T06:21:00.448Z,13.63
2022-07-27T06:22:00.446Z,13.46
2022-07-27T06:23:00.613Z,13.46
2022-07-27T06:24:00.483Z,13.71
2022-07-27T06:25:00.445Z,13.79
2022-07-27T06:26:00.460Z,13.79
2022-07-27T06:27:00.469Z,13.96
2022-07-27T06:28:00.445Z,14.04
2022-07-27T06:29:00.455Z,13.94
2022-07-27T06:30:00.498Z,13.96
2022-07-27T06:31:01.259Z,13.96
2022-07-27T06:32:00.613Z,13.96
2022-07-27T06:33:00.462Z,13.96
2022-07-27T06:34:00.487Z,13.96
2022-07-27T06:35:00.438Z,14.04
2022-07-27T06:36:01.409Z,13.96
2022-07-27T06:37:00.553Z,14.04
2022-07-27T06:38:00.602Z,13.79
2022-07-27T06:39:00.455Z,13.83
2022-07-27T06:40:00.440Z,13.93
2022-07-27T06:41:00.440Z,13.92
2022-07-27T06:42:00.437Z,13.77
2022-07-27T06:43:00.440Z,13.93
2022-07-27T06:44:00.580Z,13.86
2022-07-27T06:45:00.585Z,13.86
2022-07-27T06:46:00.440Z,13.64
2022-07-27T06:47:00.590Z,13.67
2022-07-27T06:48:00.446Z,13.94
2022-07-27T06:49:00.587Z,13.83
2022-07-27T06:50:00.521Z,13.84
2022-07-27T06:51:00.498Z,13.61
2022-07-27T06:52:00.489Z,13.47
2022-07-27T06:53:00.451Z,13.52
2022-07-27T06:54:00.534Z,13.59
2022-07-27T06:55:00.484Z,13.39
2022-07-27T06:56:00.558Z,13.7
2022-07-27T06:57:00.435Z,13.54
2022-07-27T06:58:00.499Z,13.41
2022-07-27T06:59:00.497Z,13.37
2022-07-27T07:00:00.445Z,13.21
2022-07-27T07:01:00.560Z,13.21
2022-07-27T07:02:00.434Z,13.19
2022-07-27T07:03:00.501Z,12.73
2022-07-27T07:04:00.726Z,12.9
2022-07-27T07:05:00.540Z,13.2
2022-07-27T07:06:00.515Z,13.08
2022-07-27T07:07:05.257Z,13.23
2022-07-27T07:08:00.443Z,12.93
2022-07-27T07:09:00.446Z,13.09
2022-07-27T07:10:01.354Z,13.05
2022-07-27T07:11:00.445Z,12.69
2022-07-27T07:12:00.495Z,12.45
2022-07-27T07:13:00.512Z,12.62
2022-07-27T07:14:00.481Z,12.77
2022-07-27T07:15:00.496Z,12.44
2022-07-27T07:16:00.543Z,12.44
2022-07-27T07:17:00.452Z,12.65
2022-07-27T07:18:00.491Z,12.33
2022-07-27T07:19:00.502Z,12.54
2022-07-27T07:20:00.517Z,12.48
2022-07-27T07:21:00.510Z,12.2
2022-07-27T07:22:00.518Z,12.42
2022-07-27T07:23:00.442Z,12.23
2022-07-27T07:24:00.453Z,12.32
2022-07-27T07:25:02.955Z,12.19
2022-07-27T07:26:00.491Z,11.78
2022-07-27T07:27:00.491Z,11.62
2022-07-27T07:28:00.552Z,11.88
2022-07-27T07:29:00.464Z,12.01
2022-07-27T07:30:00.472Z,11.95
2022-07-27T07:31:00.527Z,12.2
2022-07-27T07:32:00.611Z,11.77
2022-07-27T07:33:00.519Z,11.66
2022-07-27T07:34:00.495Z,11.71
2022-07-27T07:35:00.443Z,11.52
2022-07-27T07:36:14.109Z,11.9
2022-07-27T07:37:00.516Z,12.01
2022-07-27T07:38:00.457Z,12
2022-07-27T07:39:00.480Z,11.89
2022-07-27T07:40:12.995Z,11.78
2022-07-27T07:41:00.653Z,11.21
2022-07-27T07:42:00.546Z,11.09
2022-07-27T07:43:00.440Z,11.13
2022-07-27T07:44:00.466Z,11.43
2022-07-27T07:45:00.466Z,11.35
2022-07-27T07:46:00.692Z,11.71
2022-07-27T07:47:00.605Z,11.54
2022-07-27T07:48:00.668Z,11.51
2022-07-27T07:49:00.727Z,11.21
2022-07-27T07:50:00.470Z,11.05
2022-07-27T07:51:00.503Z,11.15
2022-07-27T07:52:00.454Z,11.15
2022-07-27T07:53:00.471Z,11.54
2022-07-27T07:54:00.492Z,11.05
2022-07-27T07:55:00.492Z,11.31
2022-07-27T07:56:00.449Z,11.18
2022-07-27T07:57:00.470Z,11
2022-07-27T07:58:00.546Z,10.81
2022-07-27T07:59:00.558Z,11.17
2022-07-27T08:00:00.533Z,10.61
2022-07-27T08:01:00.667Z,10.52
2022-07-27T08:02:00.668Z,10.19
2022-07-27T08:03:00.635Z,10.34
2022-07-27T08:04:00.480Z,10.65
2022-07-27T08:05:00.476Z,10.66
2022-07-27T08:06:00.464Z,10.76
2022-07-27T08:07:00.458Z,10.71
2022-07-27T08:08:00.612Z,10.87
2022-07-27T08:09:00.515Z,10.54
2022-07-27T08:10:00.529Z,10.63
2022-07-27T08:11:00.463Z,10.57
2022-07-27T08:12:00.444Z,10.95
2022-07-27T08:13:00.445Z,11.27
2022-07-27T08:14:00.457Z,11.37
2022-07-27T08:15:00.520Z,11.43
2022-07-27T08:16:00.647Z,11.43
2022-07-27T08:17:00.451Z,11.54
2022-07-27T08:18:00.466Z,11.47
2022-07-27T08:19:00.476Z,11.31
2022-07-27T08:20:00.486Z,11.38
2022-07-27T08:21:00.464Z,11.18
2022-07-27T08:22:00.508Z,11.23
2022-07-27T08:23:00.559Z,11.04
2022-07-27T08:24:01.382Z,11.28
2022-07-27T08:25:00.458Z,11.52
2022-07-27T08:26:05.529Z,11.27
2022-07-27T08:27:00.450Z,11.25
2022-07-27T08:28:02.018Z,10.9
2022-07-27T08:29:08.997Z,10.77
2022-07-27T08:30:00.586Z,10.09
2022-07-27T08:31:00.508Z,10.21
2022-07-27T08:32:00.493Z,9.71
2022-07-27T08:33:00.477Z,9.97
2022-07-27T08:34:00.472Z,9.84
2022-07-27T08:35:00.453Z,10.13
2022-07-27T08:36:00.536Z,10.43
2022-07-27T08:37:00.505Z,10.67
2022-07-27T08:38:00.487Z,10.54
2022-07-27T08:39:00.478Z,10.25
2022-07-27T08:41:00.462Z,9.86
2022-07-27T08:42:00.516Z,10.12
2022-07-27T08:43:00.519Z,10.41
2022-07-27T08:44:00.523Z,10.45
2022-07-27T08:45:00.448Z,10.55
2022-07-27T08:46:00.753Z,10.59
2022-07-27T08:47:00.605Z,10.76
2022-07-27T08:48:00.458Z,10.65
2022-07-27T08:49:00.598Z,10.68
2022-07-27T08:50:00.618Z,10.39
2022-07-27T08:51:00.500Z,10.19
2022-07-27T08:52:00.475Z,10.11
2022-07-27T08:53:00.479Z,10.23
2022-07-27T08:54:00.455Z,10.18
2022-07-27T08:55:00.482Z,10.41
2022-07-27T08:56:00.477Z,10.2
2022-07-27T08:57:00.625Z,10.3
2022-07-27T08:58:03.123Z,10.31
2022-07-27T08:59:00.473Z,10.42
2022-07-27T09:00:00.477Z,10.47
2022-07-27T09:01:00.535Z,10.39
2022-07-27T09:02:03.362Z,10.48
2022-07-27T09:03:00.559Z,9.96
2022-07-27T09:04:00.555Z,10.01
2022-07-27T09:05:00.510Z,9.8
2022-07-27T09:06:00.580Z,9.8
2022-07-27T09:07:00.466Z,9.69
2022-07-27T09:08:00.583Z,9.74
2022-07-27T09:09:00.467Z,9.98
2022-07-27T09:10:00.515Z,9.74
2022-07-27T09:11:00.621Z,9.46
2022-07-27T09:12:00.517Z,9.5
2022-07-27T09:13:00.463Z,9.67
2022-07-27T09:14:00.485Z,9.5
2022-07-27T09:15:00.530Z,9.62
2022-07-27T09:16:17.350Z,9.62
2022-07-27T09:17:46.583Z,9.41
2022-07-27T09:18:00.535Z,9.45
2022-07-27T09:19:00.556Z,9.52
2022-07-27T09:20:00.537Z,9.62
2022-07-27T09:21:00.507Z,9.5
2022-07-27T09:22:00.489Z,9.5
2022-07-27T09:23:00.527Z,9.57
2022-07-27T09:24:00.464Z,9.47
2022-07-27T09:25:00.512Z,9.66
2022-07-27T09:26:04.407Z,9.63
2022-07-27T09:27:00.528Z,9.67
2022-07-27T09:28:00.471Z,9.78
2022-07-27T09:29:00.521Z,9.68
2022-07-27T09:30:00.492Z,9.6
2022-07-27T09:31:00.637Z,9.72
2022-07-27T09:32:00.507Z,9.29
2022-07-27T09:33:00.512Z,9.33
2022-07-27T09:34:00.546Z,9.77
2022-07-27T09:35:00.551Z,10.11
2022-07-27T09:36:00.581Z,9.57
2022-07-27T09:37:00.566Z,9.44
2022-07-27T09:38:00.467Z,9.7
2022-07-27T09:39:12.970Z,9.68
2022-07-27T09:40:00.510Z,10.04
2022-07-27T09:41:00.498Z,9.47
2022-07-27T09:42:00.497Z,8.97
2022-07-27T09:43:31.701Z,9.32
2022-07-27T09:45:00.549Z,9.32
2022-07-27T09:46:00.578Z,9.39
2022-07-27T09:47:00.680Z,9.38
2022-07-27T09:48:00.479Z,9.04
2022-07-27T09:49:00.530Z,9.11
2022-07-27T09:50:00.462Z,9.12
2022-07-27T09:51:02.623Z,9.08
2022-07-27T09:52:01.922Z,9.29
2022-07-27T09:53:10.266Z,9.08
2022-07-27T09:54:00.553Z,9.1
2022-07-27T09:55:00.498Z,9.1
2022-07-27T09:56:00.470Z,9.1
2022-07-27T09:57:00.470Z,9.16
2022-07-27T09:58:00.470Z,9.09
2022-07-27T09:59:00.456Z,9.26
2022-07-27T10:00:00.512Z,9.28
2022-07-27T10:01:00.521Z,9.08
2022-07-27T10:02:00.592Z,8.92
2022-07-27T10:03:00.473Z,9.19
2022-07-27T10:04:00.478Z,9.12
2022-07-27T10:05:00.551Z,9.28
2022-07-27T10:06:00.465Z,9.11
2022-07-27T10:07:03.946Z,9.38
2022-07-27T10:08:00.567Z,9.27
2022-07-27T10:09:00.562Z,9.25
2022-07-27T10:10:00.577Z,9.24
2022-07-27T10:11:00.535Z,9.1
2022-07-27T10:12:00.486Z,9.38
2022-07-27T10:13:00.481Z,9.75
2022-07-27T10:14:00.599Z,9.09
2022-07-27T10:15:00.528Z,9.18
2022-07-27T10:16:00.543Z,9.01
2022-07-27T10:17:00.524Z,8.8
2022-07-27T10:18:01.827Z,8.83
2022-07-27T10:19:00.523Z,8.75
2022-07-27T10:20:00.455Z,8.71
2022-07-27T10:21:00.537Z,8.65
2022-07-27T10:22:00.539Z,8.63
2022-07-27T10:23:00.463Z,8.46
2022-07-27T10:24:00.488Z,8.56
2022-07-27T10:25:00.487Z,8.36
2022-07-27T10:26:00.578Z,8.61
2022-07-27T10:27:00.473Z,8.84
2022-07-27T10:28:00.523Z,8.58
2022-07-27T10:29:00.529Z,8.57
2022-07-27T10:30:00.474Z,8.93
2022-07-27T10:31:00.546Z,9.23
2022-07-27T10:32:00.505Z,8.75
2022-07-27T10:33:00.466Z,8.67
2022-07-27T10:34:00.520Z,8.52
2022-07-27T10:35:00.515Z,8.48
2022-07-27T10:36:00.529Z,8.74
2022-07-27T10:37:00.538Z,8.74
2022-07-27T10:38:00.467Z,8.95
2022-07-27T10:39:00.549Z,8.84
2022-07-27T10:40:00.457Z,9.18
2022-07-27T10:41:00.484Z,8.91
2022-07-27T10:42:00.628Z,9.42
2022-07-27T10:43:00.524Z,9.2
2022-07-27T10:44:00.472Z,9.27
2022-07-27T10:45:00.470Z,9.13
2022-07-27T10:46:02.338Z,9.16
2022-07-27T10:47:00.471Z,9.19
2022-07-27T10:48:00.477Z,9
2022-07-27T10:49:00.666Z,8.99
2022-07-27T10:50:00.642Z,8.86
2022-07-27T10:51:00.489Z,8.74
2022-07-27T10:52:00.479Z,8.72
2022-07-27T10:53:00.656Z,8.89
2022-07-27T10:54:15.761Z,8.96
2022-07-27T10:55:00.502Z,8.84
2022-07-27T10:56:00.570Z,8.55
2022-07-27T10:57:00.673Z,8.47
2022-07-27T10:58:00.501Z,8.46
2022-07-27T10:59:00.585Z,8.34
2022-07-27T11:00:10.187Z,8.73
2022-07-27T11:01:00.564Z,8.8
2022-07-27T11:02:00.534Z,9.04
2022-07-27T11:03:00.535Z,8.91
2022-07-27T11:04:00.656Z,8.84
2022-07-27T11:05:00.515Z,8.96
2022-07-27T11:06:14.569Z,8.75
2022-07-27T11:07:22.936Z,8.76
2022-07-27T11:09:38.695Z,8.43
2022-07-27T11:10:04.038Z,8.14
2022-07-27T11:11:00.539Z,8.23
2022-07-27T11:12:00.583Z,8.25
2022-07-27T11:13:05.540Z,8.03
2022-07-27T11:14:00.499Z,7.99
2022-07-27T11:15:00.583Z,8.02
2022-07-27T11:16:22.878Z,7.89
2022-07-27T11:17:24.482Z,8.02
2022-07-27T11:18:04.279Z,7.95
2022-07-27T11:19:00.515Z,7.89
2022-07-27T11:20:00.516Z,7.95
2022-07-27T11:21:04.703Z,8.16
2022-07-27T11:22:04.473Z,8.31
2022-07-27T11:23:49.456Z,8.5
2022-07-27T11:24:00.649Z,8.55
2022-07-27T11:25:00.558Z,8.84
2022-07-27T11:26:00.468Z,8.47
2022-07-27T11:27:00.511Z,8.69
2022-07-27T11:28:00.567Z,8.34
2022-07-27T11:29:00.481Z,8.37
2022-07-27T11:30:00.492Z,8.42
2022-07-27T11:31:03.454Z,8.73
2022-07-27T11:32:00.714Z,8.52
2022-07-27T11:33:00.625Z,8.54
2022-07-27T11:34:00.585Z,8.79
2022-07-27T11:35:00.505Z,8.77
2022-07-27T11:36:00.491Z,8.95
2022-07-27T11:37:00.517Z,8.59
2022-07-27T11:38:00.575Z,8.52
2022-07-27T11:39:00.532Z,8.56
2022-07-27T11:40:03.353Z,8.33
2022-07-27T11:41:12.643Z,8.59
2022-07-27T11:42:11.968Z,8.47
2022-07-27T11:43:00.650Z,8.3
2022-07-27T11:44:00.656Z,8.33
2022-07-27T11:45:00.753Z,8.34
2022-07-27T11:46:00.809Z,8.23
2022-07-27T11:47:02.219Z,8.61
2022-07-27T11:48:00.741Z,8.45
2022-07-27T11:49:17.491Z,8.59
2022-07-27T11:50:00.618Z,8.7
2022-07-27T11:51:00.518Z,8.44
2022-07-27T11:52:00.544Z,8.54
2022-07-27T11:53:01.986Z,8.57
2022-07-27T11:54:00.500Z,8.45
2022-07-27T11:55:00.487Z,8.33
2022-07-27T11:56:00.481Z,8.25
2022-07-27T11:57:00.491Z,8.39
2022-07-27T11:58:00.500Z,8.21
2022-07-27T11:59:01.552Z,8.39
2022-07-27T12:00:00.540Z,8.4
2022-07-27T12:01:00.493Z,8.46
2022-07-27T12:02:00.637Z,8.3
2022-07-27T12:03:00.587Z,8.23
2022-07-27T12:04:00.672Z,8.19
2022-07-27T12:05:02.939Z,8.43
2022-07-27T12:06:00.536Z,8.76
2022-07-27T12:07:00.530Z,8.84
2022-07-27T12:08:00.499Z,9.17
2022-07-27T12:09:00.583Z,9.4
2022-07-27T12:10:00.500Z,9.17
2022-07-27T12:11:00.488Z,9.42
2022-07-27T12:12:00.490Z,9.29
2022-07-27T12:13:00.547Z,9.53
2022-07-27T12:14:00.533Z,9.01
2022-07-27T12:15:00.573Z,9.1
2022-07-27T12:16:00.536Z,9.02
2022-07-27T12:17:00.682Z,8.72
2022-07-27T12:18:00.588Z,8.42
2022-07-27T12:19:00.523Z,8.1
2022-07-27T12:20:00.603Z,8.39
2022-07-27T12:21:00.585Z,8.37
2022-07-27T12:22:00.527Z,8.28
2022-07-27T12:23:00.495Z,8.22
2022-07-27T12:24:00.529Z,8.52
2022-07-27T12:25:00.482Z,8.53
2022-07-27T12:26:00.529Z,8.35
2022-07-27T12:27:05.929Z,8.42
2022-07-27T12:28:00.650Z,8.11
2022-07-27T12:29:00.499Z,8.27
2022-07-27T12:30:00.490Z,8.17
2022-07-27T12:31:00.632Z,8.21
2022-07-27T12:32:00.511Z,8.47
2022-07-27T12:33:00.570Z,8.74
2022-07-27T12:34:06.055Z,8.89
2022-07-27T12:35:00.591Z,8.92
2022-07-27T12:36:00.553Z,9.24
2022-07-27T12:37:00.513Z,8.86
2022-07-27T12:38:00.527Z,8.95
2022-07-27T12:39:00.513Z,9.56
2022-07-27T12:40:00.615Z,9.32
2022-07-27T12:41:01.444Z,9.43
2022-07-27T12:42:00.502Z,9.2
2022-07-27T12:43:00.512Z,9.23
2022-07-27T12:44:00.503Z,8.96
2022-07-27T12:45:00.545Z,8.82
2022-07-27T12:46:00.685Z,8.51
2022-07-27T12:47:00.563Z,8.34
2022-07-27T12:48:00.505Z,8.44
2022-07-27T12:49:00.703Z,8.43
2022-07-27T12:50:00.506Z,8.47
2022-07-27T12:51:00.516Z,8.7
2022-07-27T12:52:00.498Z,8.66
2022-07-27T12:53:00.710Z,8.24
2022-07-27T12:54:00.601Z,8.38
2022-07-27T12:55:00.521Z,8.65
2022-07-27T12:56:00.512Z,8.54
2022-07-27T12:57:00.516Z,8.47
2022-07-27T12:58:00.499Z,8.84
2022-07-27T12:59:00.560Z,8.85
2022-07-27T13:00:00.551Z,9.14
2022-07-27T13:01:00.644Z,8.94
2022-07-27T13:02:00.874Z,9.07
2022-07-27T13:03:00.716Z,9.04
2022-07-27T13:04:00.584Z,9.03
2022-07-27T13:05:00.536Z,8.7